createdAt,value
2022-10-06T00:01:39.602Z,17.02
2022-10-06T00:03:42.930Z,16.98
2022-10-06T00:05:45.779Z,16.93
2022-10-06T00:07:48.623Z,16.92
2022-10-06T00:09:51.454Z,16.87
2022-10-06T00:11:55.602Z,16.85
2022-10-06T00:13:58.348Z,16.81
2022-10-06T00:16:02.081Z,16.76
2022-10-06T00:18:05.175Z,16.80
2022-10-06T00:20:10.343Z,16.77
2022-10-06T00:22:13.090Z,16.69
2022-10-06T00:24:15.910Z,16.65
2022-10-06T00:26:18.854Z,16.63
2022-10-06T00:28:23.125Z,16.64
2022-10-06T00:30:27.840Z,16.62
2022-10-06T00:32:30.423Z,16.44
2022-10-06T00:34:33.192Z,16.50
2022-10-06T00:36:36.063Z,16.56
2022-10-06T00:38:39.107Z,16.58
2022-10-06T00:40:47.521Z,16.61
2022-10-06T00:42:52.236Z,16.55
2022-10-06T00:44:58.668Z,16.60
2022-10-06T00:47:02.933Z,16.63
2022-10-06T00:49:11.495Z,16.64
2022-10-06T00:51:15.194Z,16.62
2022-10-06T00:53:18.346Z,16.65
2022-10-06T00:55:22.333Z,16.64
2022-10-06T00:57:26.725Z,16.64
2022-10-06T00:59:29.648Z,16.62
2022-10-06T01:01:35.569Z,16.65
2022-10-06T01:03:42.705Z,16.63
2022-10-06T01:05:49.506Z,16.61
2022-10-06T01:07:52.366Z,16.53
2022-10-06T01:09:56.753Z,16.53
2022-10-06T01:12:03.005Z,16.51
2022-10-06T01:14:05.897Z,16.51
2022-10-06T01:16:14.528Z,16.54
2022-10-06T01:18:22.791Z,16.51
2022-10-06T01:20:26.269Z,16.48
2022-10-06T01:22:31.884Z,16.49
2022-10-06T01:24:35.741Z,16.47
2022-10-06T01:26:43.433Z,16.44
2022-10-06T01:28:48.003Z,16.43
2022-10-06T01:30:52.917Z,16.24
2022-10-06T01:32:57.528Z,16.27
2022-10-06T01:35:00.870Z,16.30
2022-10-06T01:37:04.744Z,16.31
2022-10-06T01:39:09.089Z,16.28
2022-10-06T01:41:13.039Z,16.25
2022-10-06T01:43:16.690Z,16.20
2022-10-06T01:45:19.653Z,16.13
2022-10-06T01:47:41.175Z,16.10
2022-10-06T01:49:44.015Z,16.08
2022-10-06T01:51:47.355Z,16.07
2022-10-06T01:53:50.770Z,16.11
2022-10-06T01:55:59.246Z,15.97
2022-10-06T01:58:03.433Z,15.93
2022-10-06T02:00:07.492Z,15.94
2022-10-06T02:02:15.569Z,15.83
2022-10-06T02:04:18.626Z,15.78
2022-10-06T02:06:21.495Z,15.81
2022-10-06T02:08:24.290Z,15.77
2022-10-06T02:10:31.872Z,15.71
2022-10-06T02:12:36.919Z,15.69
2022-10-06T02:14:39.974Z,15.69
2022-10-06T02:16:43.539Z,15.67
2022-10-06T02:18:47.593Z,15.65
2022-10-06T02:20:50.381Z,15.62
2022-10-06T02:22:53.238Z,15.61
2022-10-06T02:24:56.320Z,15.59
2022-10-06T02:26:59.129Z,15.56
2022-10-06T02:29:03.208Z,15.54
2022-10-06T02:31:08.350Z,15.49
2022-10-06T02:33:12.725Z,15.45
2022-10-06T02:35:15.459Z,15.44
2022-10-06T02:37:19.502Z,15.43
2022-10-06T02:39:22.441Z,15.45
2022-10-06T02:41:25.337Z,15.38
2022-10-06T02:43:28.887Z,15.33
2022-10-06T02:45:33.276Z,15.31
2022-10-06T02:47:37.900Z,15.28
2022-10-06T02:49:40.739Z,15.28
2022-10-06T02:51:43.534Z,15.28
2022-10-06T02:53:49.024Z,15.28
2022-10-06T02:55:59.275Z,15.28
2022-10-06T02:58:02.162Z,15.26
2022-10-06T03:00:07.538Z,15.30
2022-10-06T03:02:11.924Z,15.30
2022-10-06T03:04:14.783Z,15.30
2022-10-06T03:06:22.806Z,15.34
2022-10-06T03:08:35.571Z,15.38
2022-10-06T03:10:39.180Z,15.35
2022-10-06T03:12:41.985Z,15.37
2022-10-06T03:14:45.188Z,15.41
2022-10-06T03:16:48.011Z,15.46
2022-10-06T03:18:58.088Z,15.47
2022-10-06T03:21:02.245Z,15.53
2022-10-06T03:23:05.177Z,15.53
2022-10-06T03:25:09.645Z,15.54
2022-10-06T03:27:12.396Z,15.52
2022-10-06T03:29:16.007Z,15.57
2022-10-06T03:31:22.899Z,15.63
2022-10-06T03:33:25.681Z,15.69
2022-10-06T03:35:29.990Z,15.67
2022-10-06T03:37:33.020Z,15.74
2022-10-06T03:39:35.750Z,15.69
2022-10-06T03:41:39.485Z,15.75
2022-10-06T03:43:46.425Z,15.79
2022-10-06T03:45:56.714Z,15.81
2022-10-06T03:48:00.389Z,15.80
2022-10-06T03:50:03.156Z,15.82
2022-10-06T03:52:07.729Z,15.84
2022-10-06T03:54:13.452Z,15.88
2022-10-06T03:56:21.260Z,15.93
2022-10-06T03:58:24.222Z,15.99
2022-10-06T04:00:27.117Z,15.99
2022-10-06T04:02:29.994Z,15.99
2022-10-06T04:04:33.049Z,16.02
2022-10-06T04:06:42.436Z,16.02
2022-10-06T04:08:51.170Z,16.03
2022-10-06T04:10:54.804Z,16.08
2022-10-06T04:12:57.835Z,16.07
2022-10-06T04:15:00.632Z,16.05
2022-10-06T04:17:04.130Z,16.05
2022-10-06T04:19:12.335Z,16.07
2022-10-06T04:21:20.272Z,16.05
2022-10-06T04:23:23.150Z,16.02
2022-10-06T04:25:27.311Z,16.03
2022-10-06T04:27:30.750Z,16.00
2022-10-06T04:29:46.534Z,16.00
2022-10-06T04:31:50.480Z,15.95
2022-10-06T04:34:13.063Z,15.94
2022-10-06T04:36:22.791Z,15.95
2022-10-06T04:38:28.174Z,15.97
2022-10-06T04:40:33.627Z,16.03
2022-10-06T04:42:36.743Z,16.07
2022-10-06T04:44:43.748Z,16.09
2022-10-06T04:46:46.867Z,16.11
2022-10-06T04:48:51.659Z,16.08
2022-10-06T04:50:55.749Z,16.04
2022-10-06T04:52:59.112Z,15.85
2022-10-06T04:55:01.880Z,15.92
2022-10-06T04:57:06.252Z,15.97
2022-10-06T04:59:09.273Z,15.82
2022-10-06T05:01:16.586Z,15.85
2022-10-06T05:03:19.437Z,15.85
2022-10-06T05:05:22.574Z,15.88
2022-10-06T05:07:27.167Z,15.91
2022-10-06T05:09:32.508Z,15.95
2022-10-06T05:11:37.330Z,15.95
2022-10-06T05:13:44.255Z,16.01
2022-10-06T05:15:56.533Z,16.02
2022-10-06T05:17:59.920Z,15.99
2022-10-06T05:20:02.923Z,15.98
2022-10-06T05:22:05.778Z,15.97
2022-10-06T05:24:09.362Z,15.96
2022-10-06T05:26:34.386Z,15.95
2022-10-06T05:28:39.305Z,15.91
2022-10-06T05:30:43.948Z,15.91
2022-10-06T05:32:50.318Z,15.91
2022-10-06T05:34:53.340Z,15.91
2022-10-06T05:36:56.534Z,15.91
2022-10-06T05:38:59.780Z,15.91
2022-10-06T05:41:06.654Z,15.92
2022-10-06T05:43:09.422Z,15.88
2022-10-06T05:45:12.320Z,15.88
2022-10-06T05:47:17.788Z,15.90
2022-10-06T05:49:20.429Z,15.73
2022-10-06T05:51:31.289Z,15.78
2022-10-06T05:53:37.121Z,15.80
2022-10-06T05:55:40.718Z,15.82
2022-10-06T05:57:44.140Z,15.87
2022-10-06T05:59:46.968Z,15.81
2022-10-06T06:01:50.176Z,15.76
2022-10-06T06:04:20.989Z,15.71
2022-10-06T06:06:29.949Z,15.69
2022-10-06T06:08:36.429Z,15.70
2022-10-06T06:10:39.408Z,15.75
2022-10-06T06:12:42.246Z,15.74
2022-10-06T06:15:25.453Z,15.75
2022-10-06T06:17:34.786Z,15.73
2022-10-06T06:19:41.517Z,15.74
2022-10-06T06:21:44.538Z,15.60
2022-10-06T06:23:48.900Z,15.68
2022-10-06T06:26:02.052Z,15.73
2022-10-06T06:28:07.089Z,15.74
2022-10-06T06:30:11.105Z,15.75
2022-10-06T06:32:14.093Z,15.81
2022-10-06T06:34:17.851Z,15.86
2022-10-06T06:36:24.856Z,15.92
2022-10-06T06:38:28.171Z,15.95
2022-10-06T06:40:31.522Z,15.96
2022-10-06T06:42:34.398Z,15.98
2022-10-06T06:44:55.853Z,15.92
2022-10-06T06:47:09.720Z,15.94
2022-10-06T06:49:14.853Z,16.00
2022-10-06T06:51:24.080Z,16.07
2022-10-06T06:53:26.997Z,16.04
2022-10-06T06:55:32.916Z,16.07
2022-10-06T06:57:36.281Z,16.07
2022-10-06T06:59:40.477Z,16.09
2022-10-06T07:01:47.291Z,16.15
2022-10-06T07:03:58.670Z,16.21
2022-10-06T07:06:08.810Z,16.26
2022-10-06T07:08:15.060Z,16.36
2022-10-06T07:10:17.849Z,16.38
2022-10-06T07:12:20.682Z,16.35
2022-10-06T07:14:28.990Z,16.32
2022-10-06T07:16:51.299Z,16.30
2022-10-06T07:19:12.572Z,16.24
2022-10-06T07:21:33.505Z,16.20
2022-10-06T07:23:55.041Z,16.23
2022-10-06T07:25:57.824Z,16.18
2022-10-06T07:28:00.840Z,16.17
2022-10-06T07:30:09.823Z,16.15
2022-10-06T07:32:13.174Z,15.98
2022-10-06T07:34:16.170Z,16.02
2022-10-06T07:36:20.629Z,16.03
2022-10-06T07:38:25.857Z,16.10
2022-10-06T07:40:31.496Z,16.13
2022-10-06T07:42:47.971Z,16.08
2022-10-06T07:45:11.997Z,16.04
2022-10-06T07:47:16.561Z,16.04
2022-10-06T07:49:29.532Z,16.03
2022-10-06T07:51:32.478Z,16.02
2022-10-06T07:53:37.374Z,15.97
2022-10-06T07:55:49.615Z,16.03
2022-10-06T07:58:00.470Z,16.05
2022-10-06T08:00:07.305Z,16.13
2022-10-06T08:02:14.462Z,16.21
2022-10-06T08:04:17.241Z,16.26
2022-10-06T08:06:20.111Z,16.26
2022-10-06T08:08:22.940Z,16.25
2022-10-06T08:10:26.419Z,16.24
2022-10-06T08:12:37.727Z,16.28
2022-10-06T08:14:40.668Z,16.31
2022-10-06T08:16:43.522Z,16.29
2022-10-06T08:18:50.253Z,16.39
2022-10-06T08:20:54.332Z,16.46
2022-10-06T08:22:57.720Z,16.42
2022-10-06T08:25:06.097Z,16.63
2022-10-06T08:27:10.266Z,16.73
2022-10-06T08:29:14.580Z,16.89
2022-10-06T08:31:18.692Z,16.85
2022-10-06T08:33:21.741Z,16.74
2022-10-06T08:35:24.506Z,16.79
2022-10-06T08:37:27.728Z,16.68
2022-10-06T08:39:31.414Z,16.63
2022-10-06T08:41:40.586Z,16.64
2022-10-06T08:43:45.049Z,16.75
2022-10-06T08:45:50.237Z,16.71
2022-10-06T08:48:00.412Z,16.67
2022-10-06T08:50:06.023Z,16.68
2022-10-06T08:52:21.395Z,16.67
2022-10-06T08:54:30.936Z,16.78
2022-10-06T08:56:48.634Z,16.85
2022-10-06T08:58:54.889Z,16.95
2022-10-06T09:01:02.917Z,17.20
2022-10-06T09:03:07.581Z,17.24
2022-10-06T09:05:13.054Z,17.27
2022-10-06T09:07:23.255Z,17.39
2022-10-06T09:09:41.618Z,17.47
2022-10-06T09:11:54.404Z,17.62
2022-10-06T09:14:03.754Z,17.48
2022-10-06T09:16:11.594Z,17.66
2022-10-06T09:18:18.877Z,17.52
2022-10-06T09:20:31.014Z,17.43
2022-10-06T09:22:33.766Z,17.56
2022-10-06T09:24:46.938Z,17.58
2022-10-06T09:26:52.470Z,17.71
2022-10-06T09:28:57.315Z,17.78
2022-10-06T09:31:02.629Z,17.70
2022-10-06T09:33:07.927Z,17.73
2022-10-06T09:35:18.886Z,17.73
2022-10-06T09:37:21.676Z,17.68
2022-10-06T09:39:26.292Z,18.01
2022-10-06T09:41:31.622Z,17.96
2022-10-06T09:43:34.460Z,18.03
2022-10-06T09:45:37.266Z,18.08
2022-10-06T09:47:44.806Z,18.13
2022-10-06T09:50:03.700Z,18.18
2022-10-06T09:52:12.901Z,18.28
2022-10-06T09:54:17.942Z,18.25
2022-10-06T09:56:21.331Z,18.29
2022-10-06T09:58:31.309Z,18.21
2022-10-06T10:00:36.300Z,18.12
2022-10-06T10:02:40.976Z,18.34
2022-10-06T10:04:48.302Z,18.40
2022-10-06T10:06:55.061Z,18.29
2022-10-06T10:09:30.868Z,18.17
2022-10-06T10:11:51.096Z,18.20
2022-10-06T10:13:54.110Z,18.35
2022-10-06T10:15:59.849Z,18.38
2022-10-06T10:18:04.772Z,18.37
2022-10-06T10:20:22.940Z,18.46
2022-10-06T10:22:35.054Z,18.61
2022-10-06T10:24:50.797Z,18.79
2022-10-06T10:27:01.235Z,18.80
2022-10-06T10:29:17.823Z,18.92
2022-10-06T10:31:31.984Z,19.06
2022-10-06T10:33:54.028Z,19.05
2022-10-06T10:36:12.655Z,19.12
2022-10-06T10:38:20.847Z,19.18
2022-10-06T10:40:31.269Z,19.30
2022-10-06T10:42:39.302Z,19.28
2022-10-06T10:44:50.608Z,19.37
2022-10-06T10:46:58.217Z,19.25
2022-10-06T10:49:08.931Z,19.02
2022-10-06T10:51:17.197Z,18.95
2022-10-06T10:53:28.622Z,18.78
2022-10-06T10:55:37.014Z,18.74
2022-10-06T10:57:43.394Z,18.82
2022-10-06T10:59:58.848Z,18.94
2022-10-06T11:02:07.378Z,18.80
2022-10-06T11:04:12.501Z,18.74
2022-10-06T11:06:30.450Z,18.73
2022-10-06T11:08:44.714Z,18.78
2022-10-06T11:10:51.219Z,18.92
2022-10-06T11:13:14.257Z,18.97
2022-10-06T11:15:29.047Z,19.02
2022-10-06T11:17:44.153Z,18.99
2022-10-06T11:19:56.081Z,18.82
2022-10-06T11:22:04.100Z,18.89
2022-10-06T11:24:15.494Z,18.91
2022-10-06T11:26:35.645Z,18.94
2022-10-06T11:28:45.254Z,19.00
2022-10-06T11:30:59.834Z,19.08
2022-10-06T11:33:13.533Z,19.05
2022-10-06T11:35:22.903Z,19.06
2022-10-06T11:37:37.057Z,19.09
2022-10-06T11:39:51.661Z,18.99
2022-10-06T11:42:00.900Z,18.89
2022-10-06T11:44:13.498Z,18.79
2022-10-06T11:46:32.001Z,18.79
2022-10-06T11:48:35.670Z,18.88
2022-10-06T11:50:41.361Z,18.91
2022-10-06T11:52:46.578Z,18.94
2022-10-06T11:54:53.602Z,18.97
2022-10-06T11:56:56.498Z,18.96
2022-10-06T11:59:31.536Z,18.89
2022-10-06T12:01:57.842Z,18.93
2022-10-06T12:04:14.681Z,19.00
2022-10-06T12:07:10.726Z,19.19
2022-10-06T12:09:28.693Z,19.16
2022-10-06T12:11:41.470Z,19.36
2022-10-06T12:14:44.510Z,19.32
2022-10-06T12:17:06.038Z,19.26
2022-10-06T12:19:03.373Z,19.31
2022-10-06T12:21:18.264Z,19.28
2022-10-06T12:23:37.595Z,19.39
2022-10-06T12:25:47.419Z,19.53
2022-10-06T12:28:05.949Z,19.34
2022-10-06T12:30:22.450Z,19.31
2022-10-06T12:32:47.476Z,19.49
2022-10-06T12:34:59.048Z,19.35
2022-10-06T12:37:34.567Z,19.22
2022-10-06T12:39:37.491Z,19.21
2022-10-06T12:41:58.670Z,19.41
2022-10-06T12:44:05.331Z,19.32
2022-10-06T12:46:16.293Z,19.23
2022-10-06T12:48:24.605Z,19.33
2022-10-06T12:50:28.306Z,19.28
2022-10-06T12:52:50.140Z,19.32
2022-10-06T12:55:04.257Z,19.32
2022-10-06T12:57:18.246Z,19.40
2022-10-06T12:59:25.662Z,19.57
2022-10-06T13:01:28.865Z,19.45
2022-10-06T13:03:32.123Z,19.35
2022-10-06T13:05:35.503Z,19.33
2022-10-06T13:07:56.879Z,19.36
2022-10-06T13:10:19.306Z,19.45
2022-10-06T13:12:26.521Z,19.60
2022-10-06T13:14:30.702Z,19.42
2022-10-06T13:16:39.260Z,19.32
2022-10-06T13:19:01.566Z,19.41
2022-10-06T13:21:04.563Z,19.36
2022-10-06T13:23:23.299Z,19.38
2022-10-06T13:25:27.741Z,19.41
2022-10-06T13:27:30.533Z,19.51
2022-10-06T13:29:34.676Z,19.46
2022-10-06T13:31:38.283Z,19.36
2022-10-06T13:33:43.329Z,19.33
2022-10-06T13:35:49.307Z,19.37
2022-10-06T13:37:53.264Z,19.44
2022-10-06T13:39:56.214Z,19.47
2022-10-06T13:42:03.463Z,19.51
2022-10-06T13:44:30.780Z,19.48
2022-10-06T13:46:43.135Z,19.41
2022-10-06T13:48:49.253Z,19.37
2022-10-06T13:50:53.181Z,19.38
2022-10-06T13:52:56.219Z,19.35
2022-10-06T13:55:00.873Z,19.34
2022-10-06T13:57:04.354Z,19.23
2022-10-06T13:59:38.322Z,19.27
2022-10-06T14:01:42.874Z,19.27
2022-10-06T14:03:45.574Z,19.24
2022-10-06T14:05:48.747Z,19.27
2022-10-06T14:07:52.841Z,19.42
2022-10-06T14:09:58.727Z,19.35
2022-10-06T14:12:07.184Z,19.30
2022-10-06T14:14:17.850Z,19.27
2022-10-06T14:16:22.705Z,19.28
2022-10-06T14:18:30.106Z,19.30
2022-10-06T14:20:48.410Z,19.30
2022-10-06T14:22:51.268Z,19.23
2022-10-06T14:24:54.963Z,19.22
2022-10-06T14:27:02.253Z,19.12
2022-10-06T14:29:05.327Z,19.10
2022-10-06T14:31:13.490Z,19.09
2022-10-06T14:33:17.197Z,19.15
2022-10-06T14:35:21.596Z,19.18
2022-10-06T14:37:24.361Z,19.00
2022-10-06T14:39:28.344Z,19.02
2022-10-06T14:41:31.803Z,19.04
2022-10-06T14:43:34.605Z,19.02
2022-10-06T14:45:41.599Z,18.99
2022-10-06T14:47:45.028Z,18.94
2022-10-06T14:49:48.337Z,18.91
2022-10-06T14:51:55.741Z,18.88
2022-10-06T14:53:59.871Z,18.83
2022-10-06T14:56:04.121Z,18.90
2022-10-06T14:58:06.925Z,18.86
2022-10-06T15:00:11.253Z,18.83
2022-10-06T15:02:14.425Z,18.79
2022-10-06T15:04:19.793Z,18.74
2022-10-06T15:06:46.092Z,18.74
2022-10-06T15:08:53.590Z,18.71
2022-10-06T15:10:56.336Z,18.71
2022-10-06T15:12:59.163Z,18.74
2022-10-06T15:15:01.903Z,18.72
2022-10-06T15:17:04.689Z,18.66
2022-10-06T15:19:07.869Z,18.70
2022-10-06T15:21:13.924Z,18.65
2022-10-06T15:23:17.527Z,18.61
2022-10-06T15:25:38.967Z,18.58
2022-10-06T15:27:59.778Z,18.48
2022-10-06T15:30:02.806Z,18.42
2022-10-06T15:32:06.710Z,18.47
2022-10-06T15:34:12.113Z,18.46
2022-10-06T15:36:19.452Z,18.42
2022-10-06T15:38:22.379Z,18.36
2022-10-06T15:40:26.614Z,18.31
2022-10-06T15:42:29.365Z,18.23
2022-10-06T15:44:34.384Z,18.23
2022-10-06T15:46:39.792Z,18.25
2022-10-06T15:48:43.070Z,18.25
2022-10-06T15:50:46.580Z,18.22
2022-10-06T15:52:49.323Z,18.20
2022-10-06T15:54:52.083Z,18.24
2022-10-06T15:56:58.836Z,18.30
2022-10-06T15:59:01.870Z,18.34
2022-10-06T16:01:04.658Z,18.32
2022-10-06T16:03:24.339Z,18.30
2022-10-06T16:05:47.201Z,18.23
2022-10-06T16:07:49.929Z,18.17
2022-10-06T16:09:53.483Z,18.12
2022-10-06T16:11:59.356Z,18.10
2022-10-06T16:14:02.433Z,18.07
2022-10-06T16:16:05.520Z,18.04
2022-10-06T16:18:08.296Z,18.02
2022-10-06T16:20:11.495Z,18.00
2022-10-06T16:22:16.572Z,18.00
2022-10-06T16:24:20.908Z,17.98
2022-10-06T16:26:25.021Z,17.98
2022-10-06T16:28:29.252Z,17.94
2022-10-06T16:30:32.019Z,17.90
2022-10-06T16:32:34.889Z,17.85
2022-10-06T16:34:37.684Z,17.82
2022-10-06T16:36:40.749Z,17.75
2022-10-06T16:38:44.463Z,17.68
2022-10-06T16:40:54.883Z,17.60
2022-10-06T16:42:57.778Z,17.52
2022-10-06T16:45:01.911Z,17.45
2022-10-06T16:47:04.822Z,17.41
2022-10-06T16:49:09.150Z,17.35
2022-10-06T16:51:17.439Z,17.31
2022-10-06T16:53:20.795Z,17.27
2022-10-06T16:55:23.677Z,17.22
2022-10-06T16:57:26.429Z,17.19
2022-10-06T16:59:30.283Z,17.14
2022-10-06T17:01:36.347Z,17.12
2022-10-06T17:03:40.038Z,17.06
2022-10-06T17:05:42.793Z,16.98
2022-10-06T17:07:45.609Z,16.93
2022-10-06T17:10:08.412Z,16.88
2022-10-06T17:12:11.196Z,16.84
2022-10-06T17:14:14.623Z,16.79
2022-10-06T17:16:19.874Z,16.79
2022-10-06T17:18:24.101Z,16.72
2022-10-06T17:20:27.269Z,16.66
2022-10-06T17:22:30.079Z,16.66
2022-10-06T17:24:32.781Z,16.62
2022-10-06T17:26:37.468Z,16.56
2022-10-06T17:28:41.995Z,16.47
2022-10-06T17:30:51.961Z,16.28
2022-10-06T17:32:55.051Z,16.26
2022-10-06T17:34:59.292Z,16.24
2022-10-06T17:37:03.180Z,16.20
2022-10-06T17:39:07.434Z,16.18
2022-10-06T17:41:11.571Z,16.13
2022-10-06T17:43:14.326Z,16.10
2022-10-06T17:45:21.041Z,16.11
2022-10-06T17:47:24.209Z,16.10
2022-10-06T17:49:28.537Z,16.04
2022-10-06T17:51:33.183Z,16.01
2022-10-06T17:53:36.229Z,15.82
2022-10-06T17:55:38.961Z,15.83
2022-10-06T17:57:41.870Z,15.84
2022-10-06T17:59:44.629Z,15.85
2022-10-06T18:01:48.024Z,15.87
2022-10-06T18:03:55.271Z,15.84
2022-10-06T18:06:00.434Z,15.80
2022-10-06T18:08:05.414Z,15.77
2022-10-06T18:10:29.751Z,15.76
2022-10-06T18:12:38.505Z,15.74
2022-10-06T18:14:41.672Z,15.71
2022-10-06T18:16:46.485Z,15.68
2022-10-06T18:18:52.348Z,15.70
2022-10-06T18:21:03.169Z,15.67
2022-10-06T18:23:09.058Z,15.65
2022-10-06T18:25:16.652Z,15.62
2022-10-06T18:27:20.107Z,15.54
2022-10-06T18:29:27.982Z,15.49
2022-10-06T18:31:33.735Z,15.41
2022-10-06T18:36:18.898Z,15.25
2022-10-06T18:38:23.045Z,15.16
2022-10-06T18:40:25.871Z,15.13
2022-10-06T18:42:29.090Z,15.09
2022-10-06T18:44:49.750Z,15.06
2022-10-06T18:47:10.105Z,15.03
2022-10-06T18:49:15.729Z,15.06
2022-10-06T18:51:18.745Z,14.99
2022-10-06T18:53:22.953Z,14.96
2022-10-06T18:55:26.262Z,14.90
2022-10-06T18:57:29.037Z,14.86
2022-10-06T18:59:31.777Z,14.88
2022-10-06T19:01:34.651Z,14.87
2022-10-06T19:03:37.557Z,14.86
2022-10-06T19:05:40.982Z,14.83
2022-10-06T19:07:44.132Z,14.82
2022-10-06T19:09:49.972Z,14.83
2022-10-06T19:11:55.759Z,14.80
2022-10-06T19:13:59.870Z,14.79
2022-10-06T19:16:02.744Z,14.76
2022-10-06T19:18:06.168Z,14.74
2022-10-06T19:20:10.720Z,14.72
2022-10-06T19:22:15.414Z,14.64
2022-10-06T19:24:19.240Z,14.40
2022-10-06T19:26:23.338Z,14.45
2022-10-06T19:28:28.422Z,14.44
2022-10-06T19:30:31.313Z,14.42
2022-10-06T19:32:34.357Z,14.39
2022-10-06T19:34:38.401Z,14.34
2022-10-06T19:36:42.189Z,14.34
2022-10-06T19:38:46.193Z,14.35
2022-10-06T19:40:49.794Z,14.35
2022-10-06T19:42:53.014Z,14.42
2022-10-06T19:44:55.807Z,14.39
2022-10-06T19:46:58.826Z,14.35
2022-10-06T19:49:05.501Z,14.35
2022-10-06T19:51:16.217Z,14.34
2022-10-06T19:53:19.205Z,14.27
2022-10-06T19:55:22.835Z,14.22
2022-10-06T19:57:28.491Z,14.18
2022-10-06T19:59:32.813Z,14.17
2022-10-06T20:01:36.042Z,14.14
2022-10-06T20:03:41.409Z,14.14
2022-10-06T20:05:44.236Z,14.06
2022-10-06T20:07:47.882Z,14.02
2022-10-06T20:09:50.685Z,14.00
2022-10-06T20:11:53.491Z,13.91
2022-10-06T20:13:56.586Z,13.87
2022-10-06T20:16:03.502Z,13.86
2022-10-06T20:18:06.364Z,13.78
2022-10-06T20:20:09.819Z,13.72
2022-10-06T20:22:12.544Z,13.75
2022-10-06T20:24:18.005Z,13.76
2022-10-06T20:26:22.939Z,13.75
2022-10-06T20:28:25.795Z,13.73
2022-10-06T20:30:29.462Z,13.71
2022-10-06T20:32:33.608Z,13.71
2022-10-06T20:34:36.426Z,13.68
2022-10-06T20:36:39.988Z,13.66
2022-10-06T20:39:00.159Z,13.66
2022-10-06T20:41:03.076Z,13.65
2022-10-06T20:43:05.992Z,13.64
2022-10-06T20:45:09.601Z,13.63
2022-10-06T20:47:13.132Z,13.59
2022-10-06T20:49:18.493Z,13.61
2022-10-06T20:51:24.280Z,13.62
2022-10-06T20:53:32.084Z,13.56
2022-10-06T20:55:35.120Z,13.50
2022-10-06T20:57:37.919Z,13.51
2022-10-06T20:59:40.669Z,13.50
2022-10-06T21:01:43.541Z,13.47
2022-10-06T21:03:49.025Z,13.46
2022-10-06T21:05:53.117Z,13.40
2022-10-06T21:07:55.899Z,13.35
2022-10-06T21:09:58.704Z,13.33
2022-10-06T21:12:04.466Z,13.30
2022-10-06T21:14:10.624Z,13.26
2022-10-06T21:16:13.429Z,13.23
2022-10-06T21:18:16.166Z,13.23
2022-10-06T21:20:18.933Z,13.20
2022-10-06T21:22:23.120Z,13.21
2022-10-06T21:24:25.931Z,13.19
2022-10-06T21:26:29.181Z,13.16
2022-10-06T21:28:32.104Z,13.16
2022-10-06T21:30:35.758Z,13.14
2022-10-06T21:32:38.548Z,13.02
2022-10-06T21:34:41.355Z,12.92
2022-10-06T21:36:44.301Z,12.87
2022-10-06T21:38:52.941Z,12.84
2022-10-06T21:40:57.218Z,12.84
2022-10-06T21:42:59.970Z,12.85
2022-10-06T21:45:02.714Z,12.87
2022-10-06T21:47:05.784Z,12.88
2022-10-06T21:49:11.833Z,12.90
2022-10-06T21:51:14.564Z,12.88
2022-10-06T21:53:17.381Z,12.81
2022-10-06T21:55:21.494Z,12.79
2022-10-06T21:57:24.336Z,12.74
2022-10-06T21:59:27.176Z,12.75
2022-10-06T22:01:32.274Z,12.62
2022-10-06T22:03:36.432Z,12.58
2022-10-06T22:05:39.355Z,12.51
2022-10-06T22:07:42.686Z,12.54
2022-10-06T22:09:45.624Z,12.61
2022-10-06T22:11:50.841Z,12.62
2022-10-06T22:13:56.226Z,12.63
2022-10-06T22:16:02.512Z,12.63
2022-10-06T22:18:05.396Z,12.62
2022-10-06T22:20:09.187Z,12.55
2022-10-06T22:22:11.957Z,12.47
2022-10-06T22:24:16.737Z,12.49
2022-10-06T22:26:19.561Z,12.51
2022-10-06T22:28:23.895Z,12.55
2022-10-06T22:30:26.650Z,12.54
2022-10-06T22:32:29.435Z,12.54
2022-10-06T22:34:32.200Z,12.54
2022-10-06T22:36:35.729Z,12.58
2022-10-06T22:38:38.641Z,12.54
2022-10-06T22:40:41.358Z,12.43
2022-10-06T22:42:44.133Z,12.42
2022-10-06T22:44:48.221Z,12.42
2022-10-06T22:46:51.065Z,12.36
2022-10-06T22:48:53.984Z,12.35
2022-10-06T22:50:56.930Z,12.39
2022-10-06T22:52:59.733Z,12.40
2022-10-06T22:55:02.523Z,12.37
2022-10-06T22:57:06.648Z,12.37
2022-10-06T22:59:09.373Z,12.36
2022-10-06T23:01:15.616Z,12.37
2022-10-06T23:03:19.715Z,12.32
2022-10-06T23:05:23.824Z,12.28
2022-10-06T23:07:26.628Z,12.26
2022-10-06T23:09:29.413Z,12.20
2022-10-06T23:11:32.258Z,12.16
2022-10-06T23:13:35.171Z,12.11
2022-10-06T23:15:37.953Z,12.08
2022-10-06T23:17:43.279Z,12.08
2022-10-06T23:19:46.299Z,12.11
2022-10-06T23:21:49.040Z,12.15
2022-10-06T23:23:53.691Z,12.14
2022-10-06T23:25:56.454Z,12.09
2022-10-06T23:27:59.297Z,12.06
2022-10-06T23:30:02.293Z,12.03
2022-10-06T23:32:05.025Z,12.05
2022-10-06T23:34:09.453Z,12.05
2022-10-06T23:36:14.267Z,12.02
2022-10-06T23:38:16.852Z,11.89
2022-10-06T23:40:19.639Z,11.92
2022-10-06T23:42:22.366Z,11.94
2022-10-06T23:44:25.151Z,11.96
2022-10-06T23:46:27.872Z,12.01
2022-10-06T23:48:31.003Z,11.99
2022-10-06T23:50:35.115Z,12.00
2022-10-06T23:52:38.148Z,11.99
2022-10-06T23:54:40.925Z,12.01
2022-10-06T23:56:43.664Z,11.95
2022-10-06T23:58:46.397Z,11.94
